sensor_id;sensor_type;location;lat;lon;timestamp;P1;durP1;ratioP1;P2;durP2;ratioP2
17985;SDS011;9118;48.122;11.546;2023-07-09T00:01:43;12.25;;;9.70;;
17985;SDS011;9118;48.122;11.546;2023-07-09T00:04:10;19.40;;;10.50;;
17985;SDS011;9118;48.122;11.546;2023-07-09T00:06:38;11.95;;;9.20;;
17985;SDS011;9118;48.122;11.546;2023-07-09T00:09:05;12.82;;;8.75;;
17985;SDS011;9118;48.122;11.546;2023-07-09T00:11:33;12.90;;;9.25;;
17985;SDS011;9118;48.122;11.546;2023-07-09T00:14:00;16.80;;;10.52;;
17985;SDS011;9118;48.122;11.546;2023-07-09T00:16:28;13.80;;;9.98;;
17985;SDS011;9118;48.122;11.546;2023-07-09T00:18:56;15.10;;;10.07;;
17985;SDS011;9118;48.122;11.546;2023-07-09T00:21:23;13.77;;;9.50;;
17985;SDS011;9118;48.122;11.546;2023-07-09T00:23:50;15.38;;;11.95;;
17985;SDS011;9118;48.122;11.546;2023-07-09T00:26:17;13.75;;;10.68;;
17985;SDS011;9118;48.122;11.546;2023-07-09T00:28:48;11.48;;;9.07;;
17985;SDS011;9118;48.122;11.546;2023-07-09T00:31:15;18.85;;;9.90;;
17985;SDS011;9118;48.122;11.546;2023-07-09T00:33:43;17.37;;;10.20;;
17985;SDS011;9118;48.122;11.546;2023-07-09T00:36:15;12.77;;;9.77;;
17985;SDS011;9118;48.122;11.546;2023-07-09T00:38:44;14.02;;;9.00;;
17985;SDS011;9118;48.122;11.546;2023-07-09T00:41:13;15.80;;;8.90;;
17985;SDS011;9118;48.122;11.546;2023-07-09T00:43:43;13.32;;;8.30;;
17985;SDS011;9118;48.122;11.546;2023-07-09T00:46:16;11.65;;;8.40;;
17985;SDS011;9118;48.122;11.546;2023-07-09T00:48:59;16.17;;;9.00;;
17985;SDS011;9118;48.122;11.546;2023-07-09T00:51:31;12.68;;;8.40;;
17985;SDS011;9118;48.122;11.546;2023-07-09T00:54:03;13.57;;;8.38;;
17985;SDS011;9118;48.122;11.546;2023-07-09T00:56:36;10.38;;;8.30;;
17985;SDS011;9118;48.122;11.546;2023-07-09T00:59:07;12.40;;;8.40;;
17985;SDS011;9118;48.122;11.546;2023-07-09T01:01:38;12.23;;;8.00;;
17985;SDS011;9118;48.122;11.546;2023-07-09T01:04:06;11.02;;;8.13;;
17985;SDS011;9118;48.122;11.546;2023-07-09T01:06:37;15.40;;;8.18;;
17985;SDS011;9118;48.122;11.546;2023-07-09T01:09:07;10.23;;;7.65;;
17985;SDS011;9118;48.122;11.546;2023-07-09T01:11:35;11.50;;;8.30;;
17985;SDS011;9118;48.122;11.546;2023-07-09T01:14:03;10.70;;;8.32;;
17985;SDS011;9118;48.122;11.546;2023-07-09T01:16:33;12.10;;;9.07;;
17985;SDS011;9118;48.122;11.546;2023-07-09T01:19:02;12.27;;;8.02;;
17985;SDS011;9118;48.122;11.546;2023-07-09T01:21:31;10.77;;;7.93;;
17985;SDS011;9118;48.122;11.546;2023-07-09T01:23:58;10.47;;;8.10;;
17985;SDS011;9118;48.122;11.546;2023-07-09T01:26:27;13.90;;;9.10;;
17985;SDS011;9118;48.122;11.546;2023-07-09T01:28:55;10.37;;;8.60;;
17985;SDS011;9118;48.122;11.546;2023-07-09T01:31:23;12.27;;;8.03;;
17985;SDS011;9118;48.122;11.546;2023-07-09T01:33:50;19.70;;;9.30;;
17985;SDS011;9118;48.122;11.546;2023-07-09T01:36:19;11.87;;;7.57;;
17985;SDS011;9118;48.122;11.546;2023-07-09T01:38:50;12.90;;;7.93;;
17985;SDS011;9118;48.122;11.546;2023-07-09T01:41:18;13.57;;;8.20;;
17985;SDS011;9118;48.122;11.546;2023-07-09T01:43:45;10.57;;;7.15;;
17985;SDS011;9118;48.122;11.546;2023-07-09T01:46:13;12.75;;;7.45;;
17985;SDS011;9118;48.122;11.546;2023-07-09T01:48:40;11.45;;;7.68;;
17985;SDS011;9118;48.122;11.546;2023-07-09T01:51:07;10.45;;;8.02;;
17985;SDS011;9118;48.122;11.546;2023-07-09T01:53:34;13.93;;;8.00;;
17985;SDS011;9118;48.122;11.546;2023-07-09T01:56:05;11.55;;;7.15;;
17985;SDS011;9118;48.122;11.546;2023-07-09T01:58:32;14.70;;;7.65;;
17985;SDS011;9118;48.122;11.546;2023-07-09T02:00:59;17.85;;;8.60;;
17985;SDS011;9118;48.122;11.546;2023-07-09T02:03:27;13.35;;;8.43;;
17985;SDS011;9118;48.122;11.546;2023-07-09T02:05:54;11.10;;;7.90;;
17985;SDS011;9118;48.122;11.546;2023-07-09T02:08:22;10.97;;;7.20;;
17985;SDS011;9118;48.122;11.546;2023-07-09T02:10:50;14.15;;;7.50;;
17985;SDS011;9118;48.122;11.546;2023-07-09T02:13:18;11.47;;;7.27;;
17985;SDS011;9118;48.122;11.546;2023-07-09T02:15:45;12.17;;;7.30;;
17985;SDS011;9118;48.122;11.546;2023-07-09T02:18:13;10.60;;;7.25;;
17985;SDS011;9118;48.122;11.546;2023-07-09T02:20:40;10.38;;;6.70;;
17985;SDS011;9118;48.122;11.546;2023-07-09T02:23:07;11.05;;;6.93;;
17985;SDS011;9118;48.122;11.546;2023-07-09T02:25:35;10.77;;;6.75;;
17985;SDS011;9118;48.122;11.546;2023-07-09T02:28:02;10.15;;;6.70;;
17985;SDS011;9118;48.122;11.546;2023-07-09T02:30:31;8.98;;;6.55;;
17985;SDS011;9118;48.122;11.546;2023-07-09T02:32:58;10.88;;;6.72;;
17985;SDS011;9118;48.122;11.546;2023-07-09T02:35:25;8.82;;;6.63;;
17985;SDS011;9118;48.122;11.546;2023-07-09T02:37:52;9.70;;;6.97;;
17985;SDS011;9118;48.122;11.546;2023-07-09T02:40:19;6.70;;;5.93;;
17985;SDS011;9118;48.122;11.546;2023-07-09T02:42:46;10.88;;;6.80;;
17985;SDS011;9118;48.122;11.546;2023-07-09T02:45:13;11.30;;;6.95;;
17985;SDS011;9118;48.122;11.546;2023-07-09T02:47:42;9.32;;;6.75;;
17985;SDS011;9118;48.122;11.546;2023-07-09T02:50:09;8.87;;;6.63;;
17985;SDS011;9118;48.122;11.546;2023-07-09T02:52:36;9.73;;;6.17;;
17985;SDS011;9118;48.122;11.546;2023-07-09T02:55:03;11.10;;;6.63;;
17985;SDS011;9118;48.122;11.546;2023-07-09T02:57:31;7.13;;;6.13;;
17985;SDS011;9118;48.122;11.546;2023-07-09T02:59:58;9.75;;;6.82;;
17985;SDS011;9118;48.122;11.546;2023-07-09T03:02:25;9.43;;;6.60;;
17985;SDS011;9118;48.122;11.546;2023-07-09T03:04:53;13.85;;;7.60;;
17985;SDS011;9118;48.122;11.546;2023-07-09T03:07:20;9.07;;;6.63;;
17985;SDS011;9118;48.122;11.546;2023-07-09T03:09:48;9.70;;;6.63;;
17985;SDS011;9118;48.122;11.546;2023-07-09T03:12:14;8.95;;;6.45;;
17985;SDS011;9118;48.122;11.546;2023-07-09T03:14:42;8.52;;;7.00;;
17985;SDS011;9118;48.122;11.546;2023-07-09T03:17:09;7.45;;;6.45;;
17985;SDS011;9118;48.122;11.546;2023-07-09T03:19:36;9.55;;;6.90;;
17985;SDS011;9118;48.122;11.546;2023-07-09T03:22:05;12.38;;;6.78;;
17985;SDS011;9118;48.122;11.546;2023-07-09T03:24:33;9.63;;;6.65;;
17985;SDS011;9118;48.122;11.546;2023-07-09T03:27:00;11.15;;;6.55;;
17985;SDS011;9118;48.122;11.546;2023-07-09T03:29:27;9.60;;;6.80;;
17985;SDS011;9118;48.122;11.546;2023-07-09T03:31:54;10.05;;;6.68;;
17985;SDS011;9118;48.122;11.546;2023-07-09T03:34:21;9.45;;;6.95;;
17985;SDS011;9118;48.122;11.546;2023-07-09T03:36:48;9.60;;;6.43;;
17985;SDS011;9118;48.122;11.546;2023-07-09T03:39:16;10.15;;;6.25;;
17985;SDS011;9118;48.122;11.546;2023-07-09T03:41:43;9.15;;;6.78;;
17985;SDS011;9118;48.122;11.546;2023-07-09T03:44:10;9.07;;;6.88;;
17985;SDS011;9118;48.122;11.546;2023-07-09T03:46:38;9.73;;;6.30;;
17985;SDS011;9118;48.122;11.546;2023-07-09T03:49:05;9.82;;;6.45;;
17985;SDS011;9118;48.122;11.546;2023-07-09T03:51:32;10.55;;;7.22;;
17985;SDS011;9118;48.122;11.546;2023-07-09T03:53:59;9.13;;;6.82;;
17985;SDS011;9118;48.122;11.546;2023-07-09T03:56:28;7.40;;;6.20;;
17985;SDS011;9118;48.122;11.546;2023-07-09T03:58:55;7.53;;;6.20;;
17985;SDS011;9118;48.122;11.546;2023-07-09T04:01:23;8.88;;;6.15;;
17985;SDS011;9118;48.122;11.546;2023-07-09T04:03:50;8.50;;;6.72;;
17985;SDS011;9118;48.122;11.546;2023-07-09T04:06:17;9.98;;;6.60;;
17985;SDS011;9118;48.122;11.546;2023-07-09T04:08:44;9.65;;;7.15;;
17985;SDS011;9118;48.122;11.546;2023-07-09T04:11:11;13.10;;;8.00;;
17985;SDS011;9118;48.122;11.546;2023-07-09T04:13:40;9.20;;;7.30;;
17985;SDS011;9118;48.122;11.546;2023-07-09T04:16:07;8.70;;;6.65;;
17985;SDS011;9118;48.122;11.546;2023-07-09T04:18:34;8.30;;;6.33;;
17985;SDS011;9118;48.122;11.546;2023-07-09T04:21:02;9.50;;;6.30;;
17985;SDS011;9118;48.122;11.546;2023-07-09T04:23:29;11.20;;;6.77;;
17985;SDS011;9118;48.122;11.546;2023-07-09T04:25:56;8.77;;;6.78;;
17985;SDS011;9118;48.122;11.546;2023-07-09T04:28:23;9.50;;;6.95;;
17985;SDS011;9118;48.122;11.546;2023-07-09T04:30:52;10.52;;;6.45;;
17985;SDS011;9118;48.122;11.546;2023-07-09T04:33:19;7.20;;;6.00;;
17985;SDS011;9118;48.122;11.546;2023-07-09T04:35:46;8.47;;;6.43;;
17985;SDS011;9118;48.122;11.546;2023-07-09T04:38:14;6.78;;;5.93;;
17985;SDS011;9118;48.122;11.546;2023-07-09T04:40:42;8.38;;;6.15;;
17985;SDS011;9118;48.122;11.546;2023-07-09T04:43:09;8.15;;;6.13;;
17985;SDS011;9118;48.122;11.546;2023-07-09T04:45:36;12.35;;;6.40;;
17985;SDS011;9118;48.122;11.546;2023-07-09T04:48:05;7.20;;;6.25;;
17985;SDS011;9118;48.122;11.546;2023-07-09T04:50:32;12.00;;;5.97;;
17985;SDS011;9118;48.122;11.546;2023-07-09T04:52:59;7.83;;;6.00;;
17985;SDS011;9118;48.122;11.546;2023-07-09T04:55:27;10.20;;;6.30;;
17985;SDS011;9118;48.122;11.546;2023-07-09T04:57:54;8.13;;;6.30;;
17985;SDS011;9118;48.122;11.546;2023-07-09T05:00:21;8.88;;;5.88;;
17985;SDS011;9118;48.122;11.546;2023-07-09T05:02:48;10.07;;;5.88;;
17985;SDS011;9118;48.122;11.546;2023-07-09T05:05:16;9.13;;;5.70;;
17985;SDS011;9118;48.122;11.546;2023-07-09T05:07:43;6.22;;;5.63;;
17985;SDS011;9118;48.122;11.546;2023-07-09T05:10:12;7.03;;;5.70;;
17985;SDS011;9118;48.122;11.546;2023-07-09T05:12:46;10.98;;;6.18;;
17985;SDS011;9118;48.122;11.546;2023-07-09T05:15:15;7.47;;;5.80;;
17985;SDS011;9118;48.122;11.546;2023-07-09T05:17:42;6.47;;;5.67;;
17985;SDS011;9118;48.122;11.546;2023-07-09T05:20:09;6.75;;;5.75;;
17985;SDS011;9118;48.122;11.546;2023-07-09T05:22:38;9.02;;;5.82;;
17985;SDS011;9118;48.122;11.546;2023-07-09T05:25:05;6.60;;;5.73;;
17985;SDS011;9118;48.122;11.546;2023-07-09T05:27:32;8.43;;;5.30;;
17985;SDS011;9118;48.122;11.546;2023-07-09T05:29:59;6.53;;;5.57;;
17985;SDS011;9118;48.122;11.546;2023-07-09T05:32:27;6.28;;;5.68;;
17985;SDS011;9118;48.122;11.546;2023-07-09T05:34:54;8.70;;;6.00;;
17985;SDS011;9118;48.122;11.546;2023-07-09T05:37:21;5.40;;;4.60;;
17985;SDS011;9118;48.122;11.546;2023-07-09T05:39:50;7.30;;;5.45;;
17985;SDS011;9118;48.122;11.546;2023-07-09T05:42:17;5.57;;;5.00;;
17985;SDS011;9118;48.122;11.546;2023-07-09T05:44:44;8.13;;;5.85;;
17985;SDS011;9118;48.122;11.546;2023-07-09T05:47:11;6.17;;;4.70;;
17985;SDS011;9118;48.122;11.546;2023-07-09T05:49:38;9.38;;;5.72;;
17985;SDS011;9118;48.122;11.546;2023-07-09T05:52:06;7.17;;;5.37;;
17985;SDS011;9118;48.122;11.546;2023-07-09T05:54:33;5.53;;;4.78;;
17985;SDS011;9118;48.122;11.546;2023-07-09T05:57:02;7.68;;;5.50;;
17985;SDS011;9118;48.122;11.546;2023-07-09T05:59:29;11.87;;;5.47;;
17985;SDS011;9118;48.122;11.546;2023-07-09T06:01:56;7.32;;;5.10;;
17985;SDS011;9118;48.122;11.546;2023-07-09T06:04:25;6.72;;;4.97;;
17985;SDS011;9118;48.122;11.546;2023-07-09T06:06:52;7.05;;;4.68;;
17985;SDS011;9118;48.122;11.546;2023-07-09T06:09:20;7.15;;;5.18;;
17985;SDS011;9118;48.122;11.546;2023-07-09T06:11:47;6.80;;;5.23;;
17985;SDS011;9118;48.122;11.546;2023-07-09T06:14:15;6.88;;;5.28;;
17985;SDS011;9118;48.122;11.546;2023-07-09T06:16:43;7.57;;;4.93;;
17985;SDS011;9118;48.122;11.546;2023-07-09T06:19:11;6.38;;;4.80;;
17985;SDS011;9118;48.122;11.546;2023-07-09T06:21:38;8.13;;;5.10;;
17985;SDS011;9118;48.122;11.546;2023-07-09T06:24:05;7.45;;;5.05;;
17985;SDS011;9118;48.122;11.546;2023-07-09T06:26:33;6.78;;;5.10;;
17985;SDS011;9118;48.122;11.546;2023-07-09T06:29:00;6.93;;;4.93;;
17985;SDS011;9118;48.122;11.546;2023-07-09T06:31:29;5.82;;;4.80;;
17985;SDS011;9118;48.122;11.546;2023-07-09T06:33:56;7.90;;;5.30;;
17985;SDS011;9118;48.122;11.546;2023-07-09T06:36:23;7.32;;;4.97;;
17985;SDS011;9118;48.122;11.546;2023-07-09T06:38:50;7.57;;;5.40;;
17985;SDS011;9118;48.122;11.546;2023-07-09T06:41:16;5.78;;;4.85;;
17985;SDS011;9118;48.122;11.546;2023-07-09T06:43:43;6.40;;;4.40;;
17985;SDS011;9118;48.122;11.546;2023-07-09T06:46:15;5.43;;;4.55;;
17985;SDS011;9118;48.122;11.546;2023-07-09T06:48:46;12.20;;;5.30;;
17985;SDS011;9118;48.122;11.546;2023-07-09T06:51:13;7.55;;;4.68;;
17985;SDS011;9118;48.122;11.546;2023-07-09T06:53:40;5.05;;;4.55;;
17985;SDS011;9118;48.122;11.546;2023-07-09T06:56:13;5.60;;;4.50;;
17985;SDS011;9118;48.122;11.546;2023-07-09T06:58:39;6.05;;;4.75;;
17985;SDS011;9118;48.122;11.546;2023-07-09T07:01:06;6.97;;;4.78;;
17985;SDS011;9118;48.122;11.546;2023-07-09T07:03:35;6.43;;;4.70;;
17985;SDS011;9118;48.122;11.546;2023-07-09T07:06:03;5.13;;;4.55;;
17985;SDS011;9118;48.122;11.546;2023-07-09T07:08:31;4.97;;;4.53;;
17985;SDS011;9118;48.122;11.546;2023-07-09T07:11:00;6.03;;;4.43;;
17985;SDS011;9118;48.122;11.546;2023-07-09T07:13:29;7.33;;;4.30;;
17985;SDS011;9118;48.122;11.546;2023-07-09T07:15:57;5.80;;;4.68;;
17985;SDS011;9118;48.122;11.546;2023-07-09T07:18:24;5.57;;;4.88;;
17985;SDS011;9118;48.122;11.546;2023-07-09T07:20:51;5.50;;;4.15;;
17985;SDS011;9118;48.122;11.546;2023-07-09T07:23:20;7.80;;;4.22;;
17985;SDS011;9118;48.122;11.546;2023-07-09T07:25:47;4.88;;;4.38;;
17985;SDS011;9118;48.122;11.546;2023-07-09T07:28:14;5.45;;;4.60;;
17985;SDS011;9118;48.122;11.546;2023-07-09T07:30:41;5.53;;;4.60;;
17985;SDS011;9118;48.122;11.546;2023-07-09T07:33:09;6.80;;;5.28;;
17985;SDS011;9118;48.122;11.546;2023-07-09T07:35:36;8.75;;;4.65;;
17985;SDS011;9118;48.122;11.546;2023-07-09T07:38:03;7.00;;;4.78;;
17985;SDS011;9118;48.122;11.546;2023-07-09T07:40:31;6.38;;;4.80;;
17985;SDS011;9118;48.122;11.546;2023-07-09T07:42:58;6.80;;;4.80;;
17985;SDS011;9118;48.122;11.546;2023-07-09T07:45:25;6.93;;;4.72;;
17985;SDS011;9118;48.122;11.546;2023-07-09T07:47:52;5.70;;;5.10;;
17985;SDS011;9118;48.122;11.546;2023-07-09T07:50:19;5.85;;;4.95;;
17985;SDS011;9118;48.122;11.546;2023-07-09T07:52:46;5.10;;;4.60;;
17985;SDS011;9118;48.122;11.546;2023-07-09T07:55:13;6.10;;;4.30;;
17985;SDS011;9118;48.122;11.546;2023-07-09T07:57:41;6.72;;;5.07;;
17985;SDS011;9118;48.122;11.546;2023-07-09T08:00:09;7.68;;;5.25;;
17985;SDS011;9118;48.122;11.546;2023-07-09T08:02:36;5.88;;;5.28;;
17985;SDS011;9118;48.122;11.546;2023-07-09T08:05:04;7.22;;;4.72;;
17985;SDS011;9118;48.122;11.546;2023-07-09T08:07:31;7.22;;;4.90;;
17985;SDS011;9118;48.122;11.546;2023-07-09T08:09:58;5.00;;;4.50;;
17985;SDS011;9118;48.122;11.546;2023-07-09T08:12:26;6.40;;;4.85;;
17985;SDS011;9118;48.122;11.546;2023-07-09T08:14:54;9.05;;;5.47;;
17985;SDS011;9118;48.122;11.546;2023-07-09T08:17:21;6.05;;;4.90;;
17985;SDS011;9118;48.122;11.546;2023-07-09T08:19:48;6.90;;;5.45;;
17985;SDS011;9118;48.122;11.546;2023-07-09T08:22:16;8.38;;;4.72;;
17985;SDS011;9118;48.122;11.546;2023-07-09T08:24:45;7.35;;;4.55;;
17985;SDS011;9118;48.122;11.546;2023-07-09T08:27:13;6.18;;;5.10;;
17985;SDS011;9118;48.122;11.546;2023-07-09T08:29:39;6.93;;;5.40;;
17985;SDS011;9118;48.122;11.546;2023-07-09T08:32:09;8.00;;;5.53;;
17985;SDS011;9118;48.122;11.546;2023-07-09T08:34:37;9.77;;;6.10;;
17985;SDS011;9118;48.122;11.546;2023-07-09T08:37:05;6.93;;;4.60;;
17985;SDS011;9118;48.122;11.546;2023-07-09T08:39:32;7.75;;;5.38;;
17985;SDS011;9118;48.122;11.546;2023-07-09T08:41:59;12.85;;;7.63;;
17985;SDS011;9118;48.122;11.546;2023-07-09T08:44:36;7.78;;;5.65;;
17985;SDS011;9118;48.122;11.546;2023-07-09T08:47:16;5.65;;;4.97;;
17985;SDS011;9118;48.122;11.546;2023-07-09T08:49:49;6.57;;;4.40;;
17985;SDS011;9118;48.122;11.546;2023-07-09T08:52:22;5.07;;;4.30;;
17985;SDS011;9118;48.122;11.546;2023-07-09T08:54:55;5.05;;;4.20;;
17985;SDS011;9118;48.122;11.546;2023-07-09T08:57:26;8.27;;;5.13;;
17985;SDS011;9118;48.122;11.546;2023-07-09T08:59:59;7.25;;;5.53;;
17985;SDS011;9118;48.122;11.546;2023-07-09T09:02:39;7.53;;;4.60;;
17985;SDS011;9118;48.122;11.546;2023-07-09T09:05:11;6.20;;;4.32;;
17985;SDS011;9118;48.122;11.546;2023-07-09T09:07:42;5.72;;;5.00;;
17985;SDS011;9118;48.122;11.546;2023-07-09T09:10:11;6.15;;;4.40;;
17985;SDS011;9118;48.122;11.546;2023-07-09T09:12:47;6.97;;;5.15;;
17985;SDS011;9118;48.122;11.546;2023-07-09T09:15:25;7.72;;;5.60;;
17985;SDS011;9118;48.122;11.546;2023-07-09T09:17:56;6.60;;;4.88;;
17985;SDS011;9118;48.122;11.546;2023-07-09T09:20:36;6.03;;;5.10;;
17985;SDS011;9118;48.122;11.546;2023-07-09T09:23:09;6.95;;;4.50;;
17985;SDS011;9118;48.122;11.546;2023-07-09T09:25:41;5.65;;;5.00;;
17985;SDS011;9118;48.122;11.546;2023-07-09T09:28:10;6.32;;;4.65;;
17985;SDS011;9118;48.122;11.546;2023-07-09T09:30:39;7.38;;;4.43;;
17985;SDS011;9118;48.122;11.546;2023-07-09T09:33:08;7.97;;;5.05;;
17985;SDS011;9118;48.122;11.546;2023-07-09T09:35:37;8.95;;;4.88;;
17985;SDS011;9118;48.122;11.546;2023-07-09T09:38:10;6.38;;;4.38;;
17985;SDS011;9118;48.122;11.546;2023-07-09T09:40:37;6.95;;;4.57;;
17985;SDS011;9118;48.122;11.546;2023-07-09T09:43:09;9.50;;;4.90;;
17985;SDS011;9118;48.122;11.546;2023-07-09T09:45:40;8.82;;;6.38;;
17985;SDS011;9118;48.122;11.546;2023-07-09T09:48:17;9.10;;;4.50;;
17985;SDS011;9118;48.122;11.546;2023-07-09T09:50:47;8.15;;;4.93;;
17985;SDS011;9118;48.122;11.546;2023-07-09T09:53:18;10.73;;;9.10;;
17985;SDS011;9118;48.122;11.546;2023-07-09T09:55:47;7.85;;;5.43;;
17985;SDS011;9118;48.122;11.546;2023-07-09T09:58:15;7.10;;;5.03;;
17985;SDS011;9118;48.122;11.546;2023-07-09T10:00:47;9.60;;;4.47;;
17985;SDS011;9118;48.122;11.546;2023-07-09T10:03:18;4.93;;;4.28;;
17985;SDS011;9118;48.122;11.546;2023-07-09T10:05:47;5.55;;;4.82;;
17985;SDS011;9118;48.122;11.546;2023-07-09T10:08:19;8.20;;;4.00;;
17985;SDS011;9118;48.122;11.546;2023-07-09T10:10:53;5.55;;;4.22;;
17985;SDS011;9118;48.122;11.546;2023-07-09T10:13:28;6.93;;;4.72;;
17985;SDS011;9118;48.122;11.546;2023-07-09T10:16:01;5.40;;;4.20;;
17985;SDS011;9118;48.122;11.546;2023-07-09T10:18:38;8.05;;;4.40;;
17985;SDS011;9118;48.122;11.546;2023-07-09T10:21:10;5.72;;;4.15;;
17985;SDS011;9118;48.122;11.546;2023-07-09T10:23:44;5.32;;;3.97;;
17985;SDS011;9118;48.122;11.546;2023-07-09T10:26:20;4.90;;;3.92;;
17985;SDS011;9118;48.122;11.546;2023-07-09T10:29:00;9.90;;;4.20;;
17985;SDS011;9118;48.122;11.546;2023-07-09T10:31:49;4.22;;;3.83;;
17985;SDS011;9118;48.122;11.546;2023-07-09T10:34:25;5.97;;;3.67;;
17985;SDS011;9118;48.122;11.546;2023-07-09T10:37:15;5.25;;;3.90;;
17985;SDS011;9118;48.122;11.546;2023-07-09T10:39:51;8.02;;;4.20;;
17985;SDS011;9118;48.122;11.546;2023-07-09T10:42:24;5.55;;;4.32;;
17985;SDS011;9118;48.122;11.546;2023-07-09T10:44:55;7.30;;;4.30;;
17985;SDS011;9118;48.122;11.546;2023-07-09T10:47:25;6.70;;;4.40;;
17985;SDS011;9118;48.122;11.546;2023-07-09T10:49:58;5.72;;;4.55;;
17985;SDS011;9118;48.122;11.546;2023-07-09T10:52:27;5.57;;;4.18;;
17985;SDS011;9118;48.122;11.546;2023-07-09T10:55:02;5.35;;;4.22;;
17985;SDS011;9118;48.122;11.546;2023-07-09T10:57:35;5.45;;;4.30;;
17985;SDS011;9118;48.122;11.546;2023-07-09T11:00:11;6.47;;;4.70;;
17985;SDS011;9118;48.122;11.546;2023-07-09T11:02:43;7.05;;;4.18;;
17985;SDS011;9118;48.122;11.546;2023-07-09T11:05:13;6.45;;;4.35;;
17985;SDS011;9118;48.122;11.546;2023-07-09T11:07:41;5.88;;;4.00;;
17985;SDS011;9118;48.122;11.546;2023-07-09T11:10:17;4.85;;;4.00;;
17985;SDS011;9118;48.122;11.546;2023-07-09T11:12:54;5.45;;;4.10;;
17985;SDS011;9118;48.122;11.546;2023-07-09T11:15:26;4.93;;;4.43;;
17985;SDS011;9118;48.122;11.546;2023-07-09T11:17:57;7.68;;;4.38;;
17985;SDS011;9118;48.122;11.546;2023-07-09T11:20:28;4.72;;;4.20;;
17985;SDS011;9118;48.122;11.546;2023-07-09T11:23:01;5.15;;;4.25;;
17985;SDS011;9118;48.122;11.546;2023-07-09T11:25:31;9.55;;;4.90;;
17985;SDS011;9118;48.122;11.546;2023-07-09T11:28:07;4.93;;;4.43;;
17985;SDS011;9118;48.122;11.546;2023-07-09T11:30:44;7.70;;;4.70;;
17985;SDS011;9118;48.122;11.546;2023-07-09T11:33:17;5.75;;;4.88;;
17985;SDS011;9118;48.122;11.546;2023-07-09T11:35:47;5.72;;;4.57;;
17985;SDS011;9118;48.122;11.546;2023-07-09T11:38:17;5.63;;;4.80;;
17985;SDS011;9118;48.122;11.546;2023-07-09T11:40:46;6.15;;;4.70;;
17985;SDS011;9118;48.122;11.546;2023-07-09T11:43:25;6.95;;;4.88;;
17985;SDS011;9118;48.122;11.546;2023-07-09T11:45:55;6.45;;;5.13;;
17985;SDS011;9118;48.122;11.546;2023-07-09T11:48:28;9.48;;;5.13;;
17985;SDS011;9118;48.122;11.546;2023-07-09T11:51:02;5.95;;;4.70;;
17985;SDS011;9118;48.122;11.546;2023-07-09T11:53:35;8.48;;;5.22;;
17985;SDS011;9118;48.122;11.546;2023-07-09T11:56:08;6.68;;;4.90;;
17985;SDS011;9118;48.122;11.546;2023-07-09T11:58:35;8.65;;;5.32;;
17985;SDS011;9118;48.122;11.546;2023-07-09T12:01:02;6.47;;;4.95;;
17985;SDS011;9118;48.122;11.546;2023-07-09T12:03:41;7.07;;;5.10;;
17985;SDS011;9118;48.122;11.546;2023-07-09T12:06:16;5.55;;;4.95;;
17985;SDS011;9118;48.122;11.546;2023-07-09T12:08:45;8.63;;;5.00;;
17985;SDS011;9118;48.122;11.546;2023-07-09T12:11:23;14.65;;;10.43;;
17985;SDS011;9118;48.122;11.546;2023-07-09T12:13:51;6.13;;;4.28;;
17985;SDS011;9118;48.122;11.546;2023-07-09T12:16:23;6.32;;;5.07;;
17985;SDS011;9118;48.122;11.546;2023-07-09T12:18:52;5.80;;;4.45;;
17985;SDS011;9118;48.122;11.546;2023-07-09T12:21:21;7.03;;;4.97;;
17985;SDS011;9118;48.122;11.546;2023-07-09T12:23:49;7.20;;;4.65;;
17985;SDS011;9118;48.122;11.546;2023-07-09T12:26:20;7.43;;;4.82;;
17985;SDS011;9118;48.122;11.546;2023-07-09T12:28:49;7.18;;;4.40;;
17985;SDS011;9118;48.122;11.546;2023-07-09T12:31:17;5.03;;;4.38;;
17985;SDS011;9118;48.122;11.546;2023-07-09T12:33:48;4.72;;;4.30;;
17985;SDS011;9118;48.122;11.546;2023-07-09T12:36:16;6.88;;;4.85;;
17985;SDS011;9118;48.122;11.546;2023-07-09T12:38:46;6.28;;;4.70;;
17985;SDS011;9118;48.122;11.546;2023-07-09T12:41:17;7.45;;;4.70;;
17985;SDS011;9118;48.122;11.546;2023-07-09T12:43:46;8.20;;;4.35;;
17985;SDS011;9118;48.122;11.546;2023-07-09T12:46:14;6.18;;;4.60;;
17985;SDS011;9118;48.122;11.546;2023-07-09T12:48:42;7.35;;;5.07;;
17985;SDS011;9118;48.122;11.546;2023-07-09T12:51:13;6.75;;;4.25;;
17985;SDS011;9118;48.122;11.546;2023-07-09T12:53:46;5.40;;;4.38;;
17985;SDS011;9118;48.122;11.546;2023-07-09T12:56:16;5.95;;;4.30;;
17985;SDS011;9118;48.122;11.546;2023-07-09T12:58:43;7.15;;;4.53;;
17985;SDS011;9118;48.122;11.546;2023-07-09T13:01:14;7.13;;;5.50;;
17985;SDS011;9118;48.122;11.546;2023-07-09T13:03:51;7.45;;;5.30;;
17985;SDS011;9118;48.122;11.546;2023-07-09T13:06:27;7.20;;;4.60;;
17985;SDS011;9118;48.122;11.546;2023-07-09T13:08:57;8.15;;;4.68;;
17985;SDS011;9118;48.122;11.546;2023-07-09T13:11:25;6.35;;;4.78;;
17985;SDS011;9118;48.122;11.546;2023-07-09T13:14:01;6.10;;;4.72;;
17985;SDS011;9118;48.122;11.546;2023-07-09T13:16:30;11.65;;;4.50;;
17985;SDS011;9118;48.122;11.546;2023-07-09T13:18:57;5.38;;;4.50;;
17985;SDS011;9118;48.122;11.546;2023-07-09T13:21:24;5.70;;;4.22;;
17985;SDS011;9118;48.122;11.546;2023-07-09T13:23:52;6.75;;;5.00;;
17985;SDS011;9118;48.122;11.546;2023-07-09T13:26:21;5.97;;;4.70;;
17985;SDS011;9118;48.122;11.546;2023-07-09T13:28:48;11.15;;;4.80;;
17985;SDS011;9118;48.122;11.546;2023-07-09T13:31:16;6.70;;;4.70;;
17985;SDS011;9118;48.122;11.546;2023-07-09T13:33:50;5.22;;;4.00;;
17985;SDS011;9118;48.122;11.546;2023-07-09T13:36:20;23.45;;;19.10;;
17985;SDS011;9118;48.122;11.546;2023-07-09T13:38:47;5.38;;;4.50;;
17985;SDS011;9118;48.122;11.546;2023-07-09T13:41:15;6.80;;;4.65;;
17985;SDS011;9118;48.122;11.546;2023-07-09T13:43:45;11.75;;;4.90;;
17985;SDS011;9118;48.122;11.546;2023-07-09T13:46:14;8.98;;;5.28;;
17985;SDS011;9118;48.122;11.546;2023-07-09T13:48:42;7.47;;;4.35;;
17985;SDS011;9118;48.122;11.546;2023-07-09T13:51:13;8.00;;;5.05;;
17985;SDS011;9118;48.122;11.546;2023-07-09T13:53:41;7.38;;;4.45;;
17985;SDS011;9118;48.122;11.546;2023-07-09T13:56:08;5.75;;;4.45;;
17985;SDS011;9118;48.122;11.546;2023-07-09T13:58:35;5.05;;;4.50;;
17985;SDS011;9118;48.122;11.546;2023-07-09T14:01:09;5.78;;;4.50;;
17985;SDS011;9118;48.122;11.546;2023-07-09T14:03:38;8.27;;;5.53;;
17985;SDS011;9118;48.122;11.546;2023-07-09T14:06:08;6.47;;;5.10;;
17985;SDS011;9118;48.122;11.546;2023-07-09T14:08:35;6.88;;;4.28;;
17985;SDS011;9118;48.122;11.546;2023-07-09T14:11:02;4.45;;;4.05;;
17985;SDS011;9118;48.122;11.546;2023-07-09T14:13:32;5.70;;;4.03;;
17985;SDS011;9118;48.122;11.546;2023-07-09T14:16:00;8.32;;;4.45;;
17985;SDS011;9118;48.122;11.546;2023-07-09T14:18:29;6.93;;;5.28;;
17985;SDS011;9118;48.122;11.546;2023-07-09T14:20:56;7.25;;;5.20;;
17985;SDS011;9118;48.122;11.546;2023-07-09T14:23:23;5.07;;;4.00;;
17985;SDS011;9118;48.122;11.546;2023-07-09T14:25:51;4.25;;;3.88;;
17985;SDS011;9118;48.122;11.546;2023-07-09T14:28:18;7.38;;;4.95;;
17985;SDS011;9118;48.122;11.546;2023-07-09T14:30:48;5.18;;;3.90;;
17985;SDS011;9118;48.122;11.546;2023-07-09T14:33:16;5.75;;;3.67;;
17985;SDS011;9118;48.122;11.546;2023-07-09T14:35:46;5.95;;;4.28;;
17985;SDS011;9118;48.122;11.546;2023-07-09T14:38:19;4.75;;;3.42;;
17985;SDS011;9118;48.122;11.546;2023-07-09T14:40:47;4.20;;;3.80;;
17985;SDS011;9118;48.122;11.546;2023-07-09T14:43:16;4.53;;;3.83;;
17985;SDS011;9118;48.122;11.546;2023-07-09T14:45:43;6.28;;;5.18;;
17985;SDS011;9118;48.122;11.546;2023-07-09T14:48:11;4.30;;;3.90;;
17985;SDS011;9118;48.122;11.546;2023-07-09T14:50:40;5.82;;;3.47;;
17985;SDS011;9118;48.122;11.546;2023-07-09T14:53:14;4.22;;;3.83;;
17985;SDS011;9118;48.122;11.546;2023-07-09T14:55:45;5.82;;;4.00;;